createdAt,value
2023-04-18T00:02:00.386Z,76.41
2023-04-18T00:07:02.720Z,77.97
2023-04-18T00:12:05.616Z,78.41
2023-04-18T00:17:10.645Z,78.34
2023-04-18T00:22:16.910Z,78.15
2023-04-18T00:27:19.566Z,78.29
2023-04-18T00:32:21.756Z,78.42
2023-04-18T00:37:23.974Z,78.39
2023-04-18T00:42:27.967Z,78.21
2023-04-18T00:47:30.191Z,77.98
2023-04-18T00:52:35.837Z,77.55
2023-04-18T00:57:38.372Z,77.79
2023-04-18T01:02:40.855Z,77.83
2023-04-18T01:07:43.381Z,77.95
2023-04-18T01:12:45.518Z,77.44
2023-04-18T01:17:47.739Z,77.21
2023-04-18T01:22:51.011Z,76.97
2023-04-18T01:27:54.436Z,76.59
2023-04-18T01:32:56.607Z,76.28
2023-04-18T01:37:59.755Z,75.85
2023-04-18T01:43:02.074Z,75.63
2023-04-18T01:48:04.471Z,75.55
2023-04-18T01:53:06.632Z,75.49
2023-04-18T01:58:08.858Z,75.44
2023-04-18T02:03:11.179Z,75.53
2023-04-18T02:08:14.164Z,75.50
2023-04-18T02:13:16.430Z,75.80
2023-04-18T02:18:18.641Z,75.92
2023-04-18T02:23:20.811Z,75.76
2023-04-18T02:28:22.976Z,75.51
2023-04-18T02:33:25.517Z,75.93
2023-04-18T02:38:27.683Z,75.43
2023-04-18T02:43:30.038Z,74.82
2023-04-18T02:48:32.231Z,75.58
2023-04-18T02:53:35.479Z,76.14
2023-04-18T02:58:37.597Z,76.41
2023-04-18T03:03:39.753Z,76.42
2023-04-18T03:08:42.018Z,76.34
2023-04-18T03:13:44.206Z,76.24
2023-04-18T03:18:46.502Z,76.01
2023-04-18T03:23:48.706Z,75.52
2023-04-18T03:28:50.860Z,75.33
2023-04-18T03:33:53.025Z,75.37
2023-04-18T03:38:55.468Z,74.84
2023-04-18T03:43:57.590Z,75.07
2023-04-18T03:48:59.842Z,75.09
2023-04-18T03:54:01.956Z,75.34
2023-04-18T03:59:04.263Z,75.83
2023-04-18T04:04:06.734Z,77.48
2023-04-18T04:09:09.090Z,79.83
2023-04-18T04:14:11.339Z,81.88
2023-04-18T04:19:14.934Z,83.59
2023-04-18T04:24:17.246Z,83.69
2023-04-18T04:29:21.656Z,84.33
2023-04-18T04:34:23.833Z,85.01
2023-04-18T04:39:26.063Z,87.51
2023-04-18T04:44:28.385Z,88.29
2023-04-18T04:49:31.139Z,88.79
2023-04-18T04:54:33.276Z,88.83
2023-04-18T04:59:35.713Z,88.04
2023-04-18T05:04:38.090Z,86.77
2023-04-18T05:09:40.401Z,86.01
2023-04-18T05:14:42.618Z,85.62
2023-04-18T05:19:44.816Z,85.40
2023-04-18T05:24:47.096Z,84.70
2023-04-18T05:29:50.352Z,84.52
2023-04-18T05:34:52.455Z,82.45
2023-04-18T05:39:54.628Z,81.80
2023-04-18T05:44:56.809Z,80.28
2023-04-18T05:49:59.156Z,78.31
2023-04-18T05:55:01.356Z,76.62
2023-04-18T06:00:06.502Z,75.65
2023-04-18T06:05:09.426Z,74.49
2023-04-18T06:10:13.601Z,73.49
2023-04-18T06:15:16.111Z,73.18
2023-04-18T06:20:18.374Z,71.89
2023-04-18T06:25:20.825Z,70.88
2023-04-18T06:30:23.101Z,70.13
2023-04-18T06:35:26.628Z,69.05
2023-04-18T06:40:34.619Z,67.66
2023-04-18T06:45:36.997Z,66.58
2023-04-18T06:50:39.385Z,65.94
2023-04-18T06:55:41.610Z,64.33
2023-04-18T07:00:44.050Z,62.98
2023-04-18T07:05:46.640Z,61.85
2023-04-18T07:10:48.773Z,60.13
2023-04-18T07:15:51.019Z,61.10
2023-04-18T07:20:53.172Z,59.53
2023-04-18T07:25:55.546Z,59.68
2023-04-18T07:30:58.506Z,59.25
2023-04-18T07:36:06.186Z,59.50
2023-04-18T07:41:08.403Z,59.37
2023-04-18T07:46:10.941Z,60.01
2023-04-18T07:51:13.210Z,59.35
2023-04-18T07:56:15.440Z,59.48
2023-04-18T08:01:18.756Z,60.07
2023-04-18T08:06:21.482Z,60.02
2023-04-18T08:11:23.634Z,59.26
2023-04-18T08:16:26.284Z,56.10
2023-04-18T08:21:28.472Z,53.08
2023-04-18T08:26:30.848Z,50.55
2023-04-18T08:31:33.194Z,48.83
2023-04-18T08:36:35.639Z,43.30
2023-04-18T08:41:38.057Z,39.37
2023-04-18T08:46:40.317Z,39.74
2023-04-18T08:51:44.507Z,43.64
2023-04-18T08:56:46.790Z,44.25
2023-04-18T09:01:56.984Z,45.83
2023-04-18T09:06:59.399Z,45.25
2023-04-18T09:12:09.459Z,46.36
2023-04-18T09:17:14.397Z,45.59
2023-04-18T09:22:18.037Z,39.15
2023-04-18T09:27:23.020Z,35.37
2023-04-18T09:32:29.174Z,39.15
2023-04-18T09:37:31.705Z,41.50
2023-04-18T09:42:36.284Z,37.48
2023-04-18T09:47:38.832Z,33.97
2023-04-18T09:52:42.856Z,36.93
2023-04-18T09:57:47.911Z,38.07
2023-04-18T10:02:51.505Z,39.84
2023-04-18T10:07:54.921Z,36.37
2023-04-18T10:12:58.581Z,30.07
2023-04-18T10:18:06.024Z,32.95
2023-04-18T10:23:40.279Z,35.19
2023-04-18T10:28:59.154Z,35.96
2023-04-18T10:34:05.657Z,34.74
2023-04-18T10:39:25.616Z,35.40
2023-04-18T10:44:28.060Z,33.26
2023-04-18T10:49:33.928Z,33.07
2023-04-18T10:54:51.017Z,33.42
2023-04-18T10:59:56.517Z,35.35
2023-04-18T11:05:07.414Z,36.86
2023-04-18T11:10:12.818Z,36.07
2023-04-18T11:15:25.742Z,32.02
2023-04-18T11:20:29.278Z,29.67
2023-04-18T11:25:36.463Z,29.43
2023-04-18T11:30:42.190Z,30.21
2023-04-18T11:35:45.958Z,33.63
2023-04-18T11:40:48.763Z,35.07
2023-04-18T11:45:57.976Z,36.32
2023-04-18T11:51:01.174Z,38.48
2023-04-18T11:56:04.601Z,39.21
2023-04-18T12:01:17.633Z,39.82
2023-04-18T12:06:19.905Z,37.59
2023-04-18T12:11:22.182Z,33.65
2023-04-18T12:16:28.442Z,33.15
2023-04-18T12:21:33.097Z,29.89
2023-04-18T12:26:45.618Z,31.62
2023-04-18T12:31:48.191Z,34.86
2023-04-18T12:36:50.534Z,36.68
2023-04-18T12:41:52.692Z,37.44
2023-04-18T12:46:54.984Z,35.78
2023-04-18T12:51:57.181Z,33.48
2023-04-18T12:56:59.382Z,32.92
2023-04-18T13:02:01.682Z,25.77
2023-04-18T13:07:04.155Z,18.20
2023-04-18T13:12:06.764Z,16.10
2023-04-18T13:17:09.586Z,17.05
2023-04-18T13:22:11.871Z,13.72
2023-04-18T13:27:15.091Z,14.64
2023-04-18T13:32:17.860Z,14.53
2023-04-18T13:37:20.202Z,17.24
2023-04-18T13:42:22.445Z,15.05
2023-04-18T13:47:24.609Z,13.14
2023-04-18T13:52:26.794Z,12.69
2023-04-18T13:57:32.043Z,13.25
2023-04-18T14:02:34.491Z,13.42
2023-04-18T14:07:38.408Z,17.08
2023-04-18T14:12:40.653Z,14.32
2023-04-18T14:17:44.828Z,15.22
2023-04-18T14:22:52.354Z,14.50
2023-04-18T14:28:09.426Z,14.31
2023-04-18T14:33:11.767Z,14.77
2023-04-18T14:38:14.012Z,14.59
2023-04-18T14:43:16.475Z,14.38
2023-04-18T14:48:18.663Z,15.55
2023-04-18T14:53:21.258Z,15.16
2023-04-18T14:58:23.442Z,14.94
2023-04-18T15:03:25.911Z,16.06
2023-04-18T15:08:28.256Z,16.51
2023-04-18T15:13:30.766Z,20.62
2023-04-18T15:18:33.033Z,20.83
2023-04-18T15:23:35.370Z,19.79
2023-04-18T15:28:37.526Z,19.25
2023-04-18T15:33:39.735Z,19.62
2023-04-18T15:38:43.092Z,19.45
2023-04-18T15:43:47.095Z,19.51
2023-04-18T15:48:49.377Z,21.30
2023-04-18T15:53:51.648Z,22.77
2023-04-18T15:58:57.256Z,25.67
2023-04-18T16:03:59.457Z,27.37
2023-04-18T16:09:02.027Z,28.50
2023-04-18T16:14:04.210Z,29.86
2023-04-18T16:19:06.447Z,31.14
2023-04-18T16:24:08.697Z,32.33
2023-04-18T16:29:10.949Z,33.53
2023-04-18T16:34:14.613Z,33.68
2023-04-18T16:39:18.081Z,34.56
2023-04-18T16:44:20.513Z,34.84
2023-04-18T16:49:24.040Z,33.78
2023-04-18T16:54:26.276Z,34.28
2023-04-18T16:59:28.738Z,34.08
2023-04-18T17:04:31.830Z,34.85
2023-04-18T17:09:34.012Z,35.71
2023-04-18T17:14:37.272Z,36.59
2023-04-18T17:19:40.213Z,37.10
2023-04-18T17:24:42.369Z,37.52
2023-04-18T17:29:44.547Z,38.75
2023-04-18T17:34:46.893Z,39.60
2023-04-18T17:39:49.514Z,40.13
2023-04-18T17:44:51.712Z,40.88
2023-04-18T17:49:53.876Z,41.76
2023-04-18T17:54:56.888Z,42.33
2023-04-18T17:59:59.372Z,43.03
2023-04-18T18:05:01.734Z,43.89
2023-04-18T18:10:04.647Z,45.26
2023-04-18T18:15:10.013Z,46.41
2023-04-18T18:20:12.434Z,46.40
2023-04-18T18:25:15.207Z,47.31
2023-04-18T18:30:18.075Z,45.89
2023-04-18T18:35:20.790Z,46.41
2023-04-18T18:40:23.193Z,45.18
2023-04-18T18:45:25.388Z,44.70
2023-04-18T18:50:27.741Z,44.74
2023-04-18T18:55:30.419Z,44.34
2023-04-18T19:00:32.610Z,43.77
2023-04-18T19:05:34.802Z,44.63
2023-04-18T19:10:37.236Z,44.68
2023-04-18T19:15:39.497Z,45.55
2023-04-18T19:20:41.941Z,45.03
2023-04-18T19:25:45.026Z,44.60
2023-04-18T19:30:47.430Z,44.05
2023-04-18T19:35:49.680Z,44.50
2023-04-18T19:40:51.910Z,45.10
2023-04-18T19:45:55.400Z,45.48
2023-04-18T19:50:58.240Z,45.71
2023-04-18T19:56:00.456Z,45.47
2023-04-18T20:01:05.780Z,45.33
2023-04-18T20:06:08.404Z,44.74
2023-04-18T20:11:11.656Z,44.87
2023-04-18T20:16:13.952Z,43.70
2023-04-18T20:21:16.168Z,43.91
2023-04-18T20:26:18.374Z,43.83
2023-04-18T20:31:20.933Z,44.08
2023-04-18T20:36:25.637Z,44.62
2023-04-18T20:41:31.033Z,44.23
2023-04-18T20:46:33.408Z,44.85
2023-04-18T20:51:37.172Z,45.08
2023-04-18T20:56:39.278Z,45.08
2023-04-18T21:01:42.113Z,45.29
2023-04-18T21:06:44.413Z,44.96
2023-04-18T21:11:46.607Z,45.04
2023-04-18T21:16:48.762Z,46.38
2023-04-18T21:21:50.870Z,46.24
2023-04-18T21:26:54.124Z,46.09
2023-04-18T21:31:56.429Z,46.07
2023-04-18T21:36:59.464Z,46.58
2023-04-18T21:42:01.967Z,46.40
2023-04-18T21:47:04.142Z,46.83
2023-04-18T21:52:07.664Z,46.82
2023-04-18T21:57:09.929Z,46.62
2023-04-18T22:02:12.612Z,47.13
2023-04-18T22:07:15.747Z,47.29
2023-04-18T22:12:18.396Z,47.73
2023-04-18T22:17:22.064Z,48.03
2023-04-18T22:22:24.345Z,47.70
2023-04-18T22:27:26.487Z,48.00
2023-04-18T22:32:28.674Z,48.12
2023-04-18T22:37:30.860Z,47.96
2023-04-18T22:42:33.772Z,47.85
2023-04-18T22:47:36.112Z,47.55
2023-04-18T22:52:38.895Z,47.59
2023-04-18T22:57:41.016Z,47.99
2023-04-18T23:02:43.293Z,47.57
2023-04-18T23:07:45.708Z,48.00
2023-04-18T23:12:48.043Z,46.70
2023-04-18T23:17:53.930Z,47.59
2023-04-18T23:22:56.190Z,47.34
2023-04-18T23:27:58.318Z,46.71
2023-04-18T23:33:00.872Z,47.16
2023-04-18T23:38:03.093Z,46.54
2023-04-18T23:43:05.257Z,46.15
2023-04-18T23:48:07.515Z,46.25
2023-04-18T23:53:09.970Z,46.14
2023-04-18T23:58:12.533Z,46.59
